Culbertson, MT (59218)

12:51 AM MST on December 28, 2014 (GMT -0700)
APRSWXNET Culbertson MT US | Change Station
CLOSE
Current Station
Personal Weather Station
Location: Culbertson, MT
Elevation: 1928 ft
Nearby Weather Stations

Elev 1928 ft 48.14 °N, 104.50 °W | Updated 34 minutes ago

Overcast
Overcast
17 °F
Feels Like 17 °F
N
0
Wind Variable Wind from ENE
Gusts 0.0 mph

Today
High -- | Low -- °F
--% Chance of Precip.
Yesterday
High -- | Low -- °F
Precip. -- in
7:48 AM 4:11 PM
Waxing Crescent, 45% visible
Pressure 29.98 in
Visibility 5.0 miles
Clouds Mostly Cloudy 9000 ft
Windchill 17 °F
Dew Point 14 °F
Humidity 87%
Rainfall 0.00 in
Snow Depth Not available.
UV 0 out of 12
Pollen .10 out of 12
Air Quality Not available.
Flu Activity Not available.
METAR KSDY 280735Z AUTO 01006KT 5SM BKN090 M07/M08 A2998 RMK AO1

More Conditions Fewer Conditions

Pressure 29.98 in
Visibility 5.0 miles
Clouds Mostly Cloudy 9000 ft
Windchill 17 °F
Dew Point 14 °F
Humidity 87%
Rainfall 0.00 in
Snow Depth Not available.
UV 0 out of 12
Pollen .10 out of 12
Air Quality Not available.
Flu Activity Not available.
METAR KSDY 280735Z AUTO 01006KT 5SM BKN090 M07/M08 A2998 RMK AO1

More Conditions Fewer Conditions

10-Day Weather Forecast

Almanac

Astronomy

Dec. 28, 2014 Rise Set
Actual Time
Civil Twilight
Nautical Twilight
Astronomical Twilight
Moon
Length of Visible Light
Length of Day
Tomorrow will be .
, % of the Moon is Illuminated

Today's Extremes

State Highs State Lows

Community

WunderPhotos

Upload Photos

1,781,210 photos uploaded!

WunderBlogs® & News

Nearby

Air Quality

  Air Quality AQ Index Pollutant
Not available.

Snow Depth

Station Depth Elevation

Earthquake Activity

City Distance Mag. Time & Date
Minimum magnitude displayed is 2.5.

Coastal Water Temperatures

Place Temperature

Nearby Weather Stations